Sira, Russia
Current Conditions -  °F | °C
As of 1:30 AM on Friday 31 Oct 2014 (Local Time) from UNAA Reporting Station
Broken Clouds Broken Clouds  
Wind Chill: 19°   Ceiling: 10000
Heat Index: 30°   Visibility: 6mi
Dew Point: 21°   Wind: 16mph
Humidity: 69%   Direction: 220°SW
Pressure: 30.21"   Gusts: NA
Location:  54.5°N, 89.93°E
Report Text: UNAA 301830Z 22007MPS 9999 SCT030CB BKN100 M01/M06 Q1023 NOSIGRMK QFE744 20190055
Loading
Personal Weather Stations






























Interactive Weather Map
Tropical Storm Tracking
New forecast layout! Learn more

10-Day Weather Forecast

Advertisements
Track Severe Weather on mobile